createdAt,value
2022-08-12T00:01:20.149Z,19.17
2022-08-12T00:04:28.185Z,19.14
2022-08-12T00:07:14.705Z,19.15
2022-08-12T00:10:01.599Z,18.92
2022-08-12T00:12:48.103Z,19.18
2022-08-12T00:15:36.538Z,19.17
2022-08-12T00:18:24.166Z,18.79
2022-08-12T00:21:10.963Z,19.17
2022-08-12T00:23:57.382Z,19.15
2022-08-12T00:26:45.141Z,18.72
2022-08-12T00:29:31.983Z,19.11
2022-08-12T00:32:35.502Z,19.15
2022-08-12T00:35:32.140Z,19.15
2022-08-12T00:38:24.429Z,18.67
2022-08-12T00:41:10.995Z,19.23
2022-08-12T00:43:39.204Z,19.19
2022-08-12T00:46:25.451Z,19.12
2022-08-12T00:48:54.160Z,18.92
2022-08-12T00:51:22.495Z,19.08
2022-08-12T00:53:51.495Z,19.08
2022-08-12T00:56:22.849Z,19.05
2022-08-12T00:58:54.240Z,18.84
2022-08-12T01:01:23.139Z,18.71
2022-08-12T01:04:11.063Z,18.91
2022-08-12T01:06:58.213Z,18.84
2022-08-12T01:09:44.549Z,18.90
2022-08-12T01:12:13.035Z,18.95
2022-08-12T01:14:42.073Z,18.87
2022-08-12T01:17:11.010Z,18.89
2022-08-12T01:19:38.957Z,18.87
2022-08-12T01:22:26.627Z,18.72
2022-08-12T01:25:11.868Z,18.27
2022-08-12T01:27:42.066Z,18.86
2022-08-12T01:30:14.957Z,18.80
2022-08-12T01:32:49.063Z,18.71
2022-08-12T01:35:18.026Z,18.80
2022-08-12T01:37:56.778Z,18.78
2022-08-12T01:40:40.486Z,18.90
2022-08-12T01:43:16.225Z,18.71
2022-08-12T01:46:29.678Z,18.80
2022-08-12T01:49:45.349Z,18.73
2022-08-12T01:52:35.447Z,18.56
2022-08-12T01:55:07.825Z,18.29
2022-08-12T01:57:58.867Z,18.31
2022-08-12T02:00:46.078Z,18.25
2022-08-12T02:03:53.001Z,18.18
2022-08-12T02:06:48.568Z,18.14
2022-08-12T02:09:38.579Z,18.15
2022-08-12T02:12:22.929Z,18.17
2022-08-12T02:15:03.956Z,17.98
2022-08-12T02:17:55.285Z,18.12
2022-08-12T02:21:02.230Z,18.04
2022-08-12T02:23:32.250Z,18.09
2022-08-12T02:26:05.171Z,17.96
2022-08-12T02:28:34.746Z,18.11
2022-08-12T02:31:09.115Z,17.98
2022-08-12T02:33:39.089Z,18.08
2022-08-12T02:36:06.890Z,18.06
2022-08-12T02:38:36.858Z,18.12
2022-08-12T02:41:07.247Z,17.98
2022-08-12T02:43:46.698Z,18.08
2022-08-12T02:46:19.633Z,18.05
2022-08-12T02:48:52.308Z,18.05
2022-08-12T02:51:29.079Z,17.96
2022-08-12T02:54:05.523Z,17.95
2022-08-12T02:56:42.277Z,17.84
2022-08-12T02:59:22.883Z,17.95
2022-08-12T03:01:56.427Z,17.85
2022-08-12T03:04:36.372Z,17.84
2022-08-12T03:07:14.890Z,17.85
2022-08-12T03:10:04.162Z,17.60
2022-08-12T03:12:42.800Z,17.73
2022-08-12T03:15:22.533Z,17.81
2022-08-12T03:18:26.410Z,17.78
2022-08-12T03:20:58.627Z,17.74
2022-08-12T03:23:29.795Z,17.71
2022-08-12T03:26:03.293Z,17.78
2022-08-12T03:28:51.438Z,17.72
2022-08-12T03:31:25.700Z,17.64
2022-08-12T03:34:00.915Z,17.66
2022-08-12T03:36:35.806Z,17.71
2022-08-12T03:39:36.239Z,17.72
2022-08-12T03:42:36.824Z,17.60
2022-08-12T03:45:33.608Z,17.42
2022-08-12T03:48:24.900Z,17.26
2022-08-12T03:51:12.334Z,17.01
2022-08-12T03:53:59.846Z,17.30
2022-08-12T03:56:46.554Z,17.40
2022-08-12T03:59:33.349Z,17.34
2022-08-12T04:02:00.943Z,17.23
2022-08-12T04:04:35.950Z,17.26
2022-08-12T04:07:10.893Z,17.23
2022-08-12T04:09:40.855Z,17.18
2022-08-12T04:12:32.417Z,17.16
2022-08-12T04:15:02.404Z,17.16
2022-08-12T04:17:30.951Z,17.18
2022-08-12T04:19:59.450Z,17.19
2022-08-12T04:22:30.387Z,16.94
2022-08-12T04:25:02.492Z,17.17
2022-08-12T04:27:32.545Z,16.83
2022-08-12T04:30:21.254Z,17.16
2022-08-12T04:32:51.973Z,16.99
2022-08-12T04:35:19.917Z,16.97
2022-08-12T04:38:00.084Z,16.95
2022-08-12T04:40:33.635Z,17.17
2022-08-12T04:43:02.248Z,17.16
2022-08-12T04:45:31.585Z,16.99
2022-08-12T04:48:00.435Z,17.36
2022-08-12T04:50:36.034Z,17.40
2022-08-12T04:53:06.832Z,17.44
2022-08-12T04:55:39.128Z,17.52
2022-08-12T04:58:10.577Z,17.59
2022-08-12T05:00:39.081Z,17.59
2022-08-12T05:03:08.042Z,17.38
2022-08-12T05:05:38.100Z,17.74
2022-08-12T05:08:11.318Z,17.82
2022-08-12T05:10:39.365Z,17.85
2022-08-12T05:13:12.865Z,17.58
2022-08-12T05:16:04.899Z,17.75
2022-08-12T05:18:29.688Z,18.03
2022-08-12T05:20:59.334Z,17.80
2022-08-12T05:23:27.987Z,17.90
2022-08-12T05:25:57.264Z,18.16
2022-08-12T05:28:27.434Z,18.21
2022-08-12T05:30:56.403Z,18.10
2022-08-12T05:33:37.815Z,18.33
2022-08-12T05:36:07.947Z,17.97
2022-08-12T05:38:54.642Z,18.44
2022-08-12T05:41:24.524Z,18.61
2022-08-12T05:44:00.253Z,18.60
2022-08-12T05:46:30.036Z,18.56
2022-08-12T05:49:01.306Z,18.59
2022-08-12T05:51:40.925Z,18.65
2022-08-12T05:54:11.362Z,18.71
2022-08-12T05:56:43.478Z,18.75
2022-08-12T05:59:12.465Z,18.77
2022-08-12T06:02:09.913Z,18.78
2022-08-12T06:04:31.067Z,18.94
2022-08-12T06:07:01.907Z,19.00
2022-08-12T06:09:31.169Z,18.79
2022-08-12T06:12:06.214Z,18.94
2022-08-12T06:14:37.642Z,18.76
2022-08-12T06:17:10.759Z,19.24
2022-08-12T06:20:28.251Z,19.29
2022-08-12T06:22:27.382Z,19.16
2022-08-12T06:24:56.180Z,19.21
2022-08-12T06:27:26.450Z,19.48
2022-08-12T06:30:09.041Z,19.59
2022-08-12T06:33:04.310Z,19.43
2022-08-12T06:35:47.619Z,19.42
2022-08-12T06:38:25.438Z,19.61
2022-08-12T06:41:14.434Z,19.85
2022-08-12T06:44:05.800Z,19.66
2022-08-12T06:46:37.187Z,19.89
2022-08-12T06:49:07.202Z,20.06
2022-08-12T06:51:35.320Z,20.17
2022-08-12T06:54:03.832Z,20.24
2022-08-12T06:57:02.619Z,20.09
2022-08-12T06:59:22.096Z,19.97
2022-08-12T07:01:51.156Z,20.43
2022-08-12T07:04:38.977Z,20.41
2022-08-12T07:07:11.579Z,20.25
2022-08-12T07:10:04.759Z,20.72
2022-08-12T07:12:32.543Z,20.45
2022-08-12T07:15:02.337Z,20.80
2022-08-12T07:17:36.721Z,20.89
2022-08-12T07:20:29.575Z,21.00
2022-08-12T07:22:59.212Z,20.88
2022-08-12T07:25:37.628Z,21.04
2022-08-12T07:28:25.636Z,21.26
2022-08-12T07:30:55.656Z,21.29
2022-08-12T07:33:29.149Z,21.12
2022-08-12T07:35:59.486Z,21.43
2022-08-12T07:38:33.787Z,21.58
2022-08-12T07:41:03.582Z,21.66
2022-08-12T07:43:33.602Z,21.68
2022-08-12T07:46:03.013Z,21.83
2022-08-12T07:48:39.730Z,21.79
2022-08-12T07:51:08.808Z,21.85
2022-08-12T07:53:47.621Z,21.64
2022-08-12T07:56:25.508Z,21.73
2022-08-12T07:58:52.963Z,21.86
2022-08-12T08:01:23.096Z,22.04
2022-08-12T08:04:18.452Z,21.92
2022-08-12T08:06:48.375Z,22.11
2022-08-12T08:09:18.590Z,21.95
2022-08-12T08:12:05.391Z,22.23
2022-08-12T08:14:32.984Z,22.21
2022-08-12T08:17:03.655Z,22.13
2022-08-12T08:20:02.112Z,22.41
2022-08-12T08:22:25.745Z,22.49
2022-08-12T08:25:20.123Z,22.33
2022-08-12T08:28:01.734Z,22.26
2022-08-12T08:30:31.946Z,22.50
2022-08-12T08:33:00.377Z,22.36
2022-08-12T08:35:46.270Z,22.61
2022-08-12T08:38:33.253Z,22.67
2022-08-12T08:42:18.108Z,22.66
2022-08-12T08:44:12.246Z,22.46
2022-08-12T08:46:44.659Z,22.66
2022-08-12T08:49:13.838Z,22.64
2022-08-12T08:51:41.244Z,22.65
2022-08-12T08:54:13.212Z,22.67
2022-08-12T08:56:46.544Z,22.61
2022-08-12T08:59:14.720Z,22.62
2022-08-12T09:01:44.497Z,22.55
2022-08-12T09:05:07.636Z,22.42
2022-08-12T09:07:17.452Z,22.60
2022-08-12T09:10:03.517Z,22.29
2022-08-12T09:12:54.872Z,22.37
2022-08-12T09:15:34.972Z,22.68
2022-08-12T09:18:09.396Z,22.54
2022-08-12T09:20:39.536Z,22.53
2022-08-12T09:26:03.928Z,22.51
2022-08-12T09:28:33.631Z,22.27
2022-08-12T09:31:04.778Z,22.48
2022-08-12T09:34:29.214Z,22.35
2022-08-12T09:36:57.817Z,22.30
2022-08-12T09:40:01.396Z,22.43
2022-08-12T09:42:50.184Z,22.55
2022-08-12T09:46:11.932Z,22.88
2022-08-12T09:48:20.486Z,22.69
2022-08-12T09:50:55.574Z,22.73
2022-08-12T09:53:29.504Z,23.13
2022-08-12T09:56:58.550Z,22.10
2022-08-12T09:58:59.752Z,23.43
2022-08-12T10:01:35.438Z,23.49
2022-08-12T10:04:19.704Z,23.34
2022-08-12T10:06:54.930Z,22.70
2022-08-12T10:09:28.563Z,23.31
2022-08-12T10:12:33.429Z,23.84
2022-08-12T10:15:02.425Z,23.57
2022-08-12T10:17:30.232Z,23.81
2022-08-12T10:19:59.457Z,24.15
2022-08-12T10:22:39.756Z,24.29
2022-08-12T10:26:33.754Z,24.09
2022-08-12T10:28:39.789Z,23.95
2022-08-12T10:31:16.501Z,24.45
2022-08-12T10:34:06.228Z,24.44
2022-08-12T10:36:42.916Z,24.46
2022-08-12T10:39:44.258Z,24.75
2022-08-12T10:42:29.430Z,24.68
2022-08-12T10:45:01.240Z,24.88
2022-08-12T10:48:07.550Z,24.76
2022-08-12T10:50:29.667Z,24.77
2022-08-12T10:53:11.409Z,24.73
2022-08-12T10:55:50.041Z,24.70
2022-08-12T10:58:28.085Z,24.41
2022-08-12T11:01:50.404Z,24.58
2022-08-12T11:04:19.619Z,24.70
2022-08-12T11:07:05.358Z,24.60
2022-08-12T11:09:55.757Z,24.65
2022-08-12T11:12:55.067Z,24.65
2022-08-12T11:15:19.377Z,24.51
2022-08-12T11:17:54.828Z,24.46
2022-08-12T11:20:30.981Z,24.15
2022-08-12T11:23:24.552Z,24.53
2022-08-12T11:25:57.609Z,24.33
2022-08-12T11:28:35.068Z,24.44
2022-08-12T11:31:09.829Z,24.22
2022-08-12T11:34:05.705Z,24.37
2022-08-12T11:36:28.851Z,24.32
2022-08-12T11:38:57.759Z,24.30
2022-08-12T11:41:31.651Z,24.20
2022-08-12T11:44:37.277Z,24.18
2022-08-12T11:46:54.873Z,24.07
2022-08-12T11:49:31.436Z,24.14
2022-08-12T11:52:02.353Z,24.05
2022-08-12T11:54:31.130Z,23.91
2022-08-12T11:57:02.249Z,23.94
2022-08-12T12:02:20.499Z,23.80
2022-08-12T12:04:52.077Z,23.93
2022-08-12T12:07:33.992Z,23.76
2022-08-12T12:10:16.549Z,23.78
2022-08-12T12:12:50.113Z,23.93
2022-08-12T12:15:25.259Z,23.91
2022-08-12T12:18:06.999Z,23.68
2022-08-12T12:20:35.229Z,23.51
2022-08-12T12:23:04.064Z,23.85
2022-08-12T12:26:07.577Z,23.88
2022-08-12T12:28:35.309Z,23.61
2022-08-12T12:31:15.136Z,23.83
2022-08-12T12:33:57.820Z,23.48
2022-08-12T12:36:30.029Z,23.56
2022-08-12T12:39:00.174Z,23.43
2022-08-12T12:42:13.470Z,23.46
2022-08-12T12:44:25.886Z,23.45
2022-08-12T12:47:17.842Z,22.64
2022-08-12T12:49:55.418Z,22.50
2022-08-12T12:52:26.775Z,22.77
2022-08-12T12:54:58.849Z,22.22
2022-08-12T12:57:36.180Z,22.51
2022-08-12T13:00:17.057Z,22.23
2022-08-12T13:02:54.181Z,22.32
2022-08-12T13:05:29.060Z,22.37
2022-08-12T13:08:00.962Z,22.43
2022-08-12T13:10:36.541Z,22.37
2022-08-12T13:14:06.864Z,22.31
2022-08-12T13:15:59.123Z,22.27
2022-08-12T13:18:31.619Z,22.27
2022-08-12T13:21:00.181Z,22.27
2022-08-12T13:23:36.195Z,22.30
2022-08-12T13:26:14.591Z,21.89
2022-08-12T13:28:46.441Z,22.02
2022-08-12T13:31:25.321Z,21.81
2022-08-12T13:34:31.878Z,21.97
2022-08-12T13:36:45.558Z,21.75
2022-08-12T13:39:16.339Z,21.96
2022-08-12T13:41:45.444Z,21.84
2022-08-12T13:44:13.286Z,21.86
2022-08-12T13:46:42.321Z,21.90
2022-08-12T13:49:53.314Z,21.66
2022-08-12T13:52:01.812Z,21.92
2022-08-12T13:54:31.578Z,21.61
2022-08-12T13:56:59.180Z,21.92
2022-08-12T13:59:28.188Z,21.95
2022-08-12T14:01:56.701Z,21.97
2022-08-12T14:04:24.884Z,21.67
2022-08-12T14:06:54.586Z,21.35
2022-08-12T14:09:22.228Z,21.94
2022-08-12T14:11:58.087Z,22.00
2022-08-12T14:14:31.618Z,21.69
2022-08-12T14:17:05.539Z,21.83
2022-08-12T14:22:21.253Z,22.02
2022-08-12T14:24:54.388Z,21.89
2022-08-12T14:27:38.173Z,21.50
2022-08-12T14:30:17.077Z,21.50
2022-08-12T14:32:52.109Z,21.61
2022-08-12T14:35:21.686Z,21.54
2022-08-12T14:37:58.064Z,21.63
2022-08-12T14:40:29.497Z,21.43
2022-08-12T14:42:59.359Z,21.52
2022-08-12T14:45:45.482Z,21.17
2022-08-12T14:48:18.850Z,21.59
2022-08-12T14:52:10.624Z,21.63
2022-08-12T14:57:00.090Z,21.61
2022-08-12T14:59:58.232Z,21.59
2022-08-12T15:02:25.811Z,21.46
2022-08-12T15:05:01.505Z,21.13
2022-08-12T15:07:34.128Z,21.62
2022-08-12T15:10:31.915Z,21.28
2022-08-12T15:13:06.977Z,21.69
2022-08-12T15:15:44.157Z,21.72
2022-08-12T15:18:21.676Z,21.58
2022-08-12T15:20:54.779Z,21.54
2022-08-12T15:23:29.242Z,21.59
2022-08-12T15:26:07.241Z,21.98
2022-08-12T15:28:36.093Z,22.02
2022-08-12T15:31:21.407Z,21.99
2022-08-12T15:33:57.187Z,22.03
2022-08-12T15:36:54.422Z,21.80
2022-08-12T15:39:16.743Z,21.92
2022-08-12T15:41:50.326Z,22.11
2022-08-12T15:44:42.170Z,21.90
2022-08-12T15:47:08.522Z,22.18
2022-08-12T15:49:54.181Z,22.18
2022-08-12T15:52:28.974Z,22.11
2022-08-12T16:09:56.638Z,21.66
2022-08-12T16:12:22.432Z,21.95
2022-08-12T16:14:55.318Z,21.93
2022-08-12T16:17:26.094Z,21.92
2022-08-12T16:20:12.327Z,21.97
2022-08-12T16:22:40.098Z,21.85
2022-08-12T16:25:18.131Z,21.94
2022-08-12T16:27:55.315Z,21.95
2022-08-12T16:30:31.572Z,21.84
2022-08-12T16:33:11.933Z,21.75
2022-08-12T16:35:41.922Z,21.79
2022-08-12T16:38:28.093Z,22.04
2022-08-12T16:40:57.155Z,21.62
2022-08-12T16:43:29.296Z,21.78
2022-08-12T16:46:32.452Z,21.80
2022-08-12T16:48:55.548Z,21.68
2022-08-12T16:51:26.770Z,21.61
2022-08-12T16:53:54.948Z,21.58
2022-08-12T16:56:23.703Z,21.55
2022-08-12T16:59:02.642Z,21.67
2022-08-12T17:01:45.335Z,21.51
2022-08-12T17:04:14.204Z,21.64
2022-08-12T17:06:43.566Z,21.60
2022-08-12T17:09:17.949Z,21.46
2022-08-12T17:11:49.740Z,21.46
2022-08-12T17:14:20.496Z,21.53
2022-08-12T17:16:55.174Z,21.47
2022-08-12T17:20:16.048Z,21.47
2022-08-12T17:22:16.719Z,21.44
2022-08-12T17:24:54.410Z,21.39
2022-08-12T17:27:24.739Z,21.38
2022-08-12T17:30:02.900Z,21.15
2022-08-12T17:32:35.157Z,21.31
2022-08-12T17:35:29.842Z,21.27
2022-08-12T17:38:06.210Z,21.18
2022-08-12T17:40:37.091Z,21.22
2022-08-12T17:43:57.313Z,21.07
2022-08-12T17:45:58.676Z,21.13
2022-08-12T17:48:34.953Z,21.17
2022-08-12T17:51:15.213Z,21.19
2022-08-12T17:54:06.306Z,21.10
2022-08-12T17:56:37.704Z,20.95
2022-08-12T17:59:12.620Z,20.70
2022-08-12T18:01:46.125Z,20.94
2022-08-12T18:04:22.194Z,20.91
2022-08-12T18:06:52.733Z,20.71
2022-08-12T18:09:24.696Z,20.76
2022-08-12T18:12:24.771Z,20.62
2022-08-12T18:15:00.743Z,20.56
2022-08-12T18:17:31.476Z,20.40
2022-08-12T18:20:07.642Z,20.27
2022-08-12T18:22:38.689Z,20.41
2022-08-12T18:26:16.078Z,20.45
2022-08-12T18:28:16.059Z,20.39
2022-08-12T18:30:53.442Z,20.34
2022-08-12T18:33:26.801Z,20.32
2022-08-12T18:35:57.147Z,20.29
2022-08-12T18:38:28.128Z,20.27
2022-08-12T18:41:22.191Z,20.19
2022-08-12T18:44:08.109Z,20.20
2022-08-12T18:46:56.848Z,20.20
2022-08-12T18:49:38.570Z,20.15
2022-08-12T18:52:11.608Z,19.96
2022-08-12T18:54:48.901Z,19.96
2022-08-12T18:58:05.844Z,20.10
2022-08-12T19:00:18.125Z,20.01
2022-08-12T19:02:51.101Z,19.81
2022-08-12T19:05:19.145Z,20.05
2022-08-12T19:08:00.202Z,20.05
2022-08-12T19:10:32.313Z,20.00
2022-08-12T19:13:23.835Z,19.90
2022-08-12T19:15:58.156Z,19.89
2022-08-12T19:18:31.406Z,19.91
2022-08-12T19:21:06.558Z,19.88
2022-08-12T19:23:39.643Z,19.64
2022-08-12T19:26:10.734Z,19.86
2022-08-12T19:28:40.818Z,19.76
2022-08-12T19:31:44.767Z,19.63
2022-08-12T19:35:06.568Z,19.77
2022-08-12T19:37:22.830Z,19.70
2022-08-12T19:40:10.122Z,19.55
2022-08-12T19:42:57.491Z,19.49
2022-08-12T19:45:43.492Z,19.57
2022-08-12T19:48:19.962Z,19.63
2022-08-12T19:50:52.177Z,19.60
2022-08-12T19:53:24.821Z,19.48
2022-08-12T19:55:57.553Z,19.52
2022-08-12T19:58:27.879Z,19.24
2022-08-12T20:00:56.072Z,19.48
2022-08-12T20:03:39.459Z,19.30
2022-08-12T20:06:15.853Z,19.35
2022-08-12T20:08:56.381Z,19.21
2022-08-12T20:12:12.970Z,19.29
2022-08-12T20:14:21.043Z,18.92
2022-08-12T20:16:57.259Z,19.22
2022-08-12T20:19:52.267Z,19.16
2022-08-12T20:22:24.955Z,19.13
2022-08-12T20:25:01.997Z,19.11
2022-08-12T20:28:03.141Z,19.09
2022-08-12T20:30:37.510Z,18.86
2022-08-12T20:33:17.780Z,19.05
2022-08-12T20:36:13.143Z,19.01
2022-08-12T20:38:40.031Z,19.01
2022-08-12T20:41:16.246Z,18.96
2022-08-12T20:43:49.624Z,18.94
2022-08-12T20:46:21.433Z,18.95
2022-08-12T20:48:54.294Z,18.86
2022-08-12T20:51:22.682Z,18.93
2022-08-12T20:53:57.697Z,18.92
2022-08-12T20:56:37.393Z,18.92
2022-08-12T20:59:20.236Z,18.62
2022-08-12T21:01:54.190Z,18.90
2022-08-12T21:04:43.773Z,18.74
2022-08-12T21:07:14.311Z,18.57
2022-08-12T21:09:49.829Z,18.73
2022-08-12T21:12:27.901Z,18.63
2022-08-12T21:15:24.230Z,18.83
2022-08-12T21:18:09.380Z,18.51
2022-08-12T21:20:51.554Z,18.66
2022-08-12T21:23:22.768Z,18.55
2022-08-12T21:25:56.408Z,18.78
2022-08-12T21:28:27.567Z,18.78
2022-08-12T21:32:34.818Z,18.79
2022-08-12T21:34:07.260Z,18.72
2022-08-12T21:36:43.361Z,18.72
2022-08-12T21:39:27.890Z,18.70
2022-08-12T21:42:06.548Z,18.71
2022-08-12T21:45:44.098Z,18.68
2022-08-12T21:47:25.110Z,18.66
2022-08-12T21:50:03.476Z,18.43
2022-08-12T21:52:48.827Z,18.42
2022-08-12T21:55:19.995Z,18.42
2022-08-12T21:57:53.262Z,18.59
2022-08-12T22:00:32.907Z,18.57
2022-08-12T22:04:02.280Z,18.55
2022-08-12T22:06:20.038Z,18.27
2022-08-12T22:09:02.250Z,18.28
2022-08-12T22:11:42.483Z,18.19
2022-08-12T22:14:17.988Z,18.32
2022-08-12T22:16:51.690Z,18.43
2022-08-12T22:19:19.731Z,18.17
2022-08-12T22:21:53.339Z,18.17
2022-08-12T22:24:26.936Z,18.36
2022-08-12T22:27:08.008Z,18.37
2022-08-12T22:30:16.600Z,18.19
2022-08-12T22:32:50.463Z,18.24
2022-08-12T22:35:55.374Z,18.24
2022-08-12T22:38:26.768Z,18.31
2022-08-12T22:41:00.884Z,18.28
2022-08-12T22:44:00.470Z,18.23
2022-08-12T22:46:32.929Z,18.08
2022-08-12T22:49:01.852Z,18.21
2022-08-12T22:51:43.006Z,18.22
2022-08-12T22:54:35.512Z,18.20
2022-08-12T22:57:12.355Z,18.05
2022-08-12T22:59:51.114Z,18.15
2022-08-12T23:02:34.916Z,17.90
2022-08-12T23:05:04.109Z,18.14
2022-08-12T23:07:59.095Z,18.11
2022-08-12T23:10:27.953Z,17.78
2022-08-12T23:13:14.863Z,18.08
2022-08-12T23:15:47.677Z,18.09
2022-08-12T23:18:22.439Z,18.03
2022-08-12T23:20:57.728Z,17.99
2022-08-12T23:23:24.922Z,17.87
2022-08-12T23:25:54.482Z,17.99
2022-08-12T23:28:42.585Z,17.89
2022-08-12T23:31:10.647Z,17.71
2022-08-12T23:34:01.409Z,17.92
2022-08-12T23:36:39.819Z,17.91
2022-08-12T23:40:14.524Z,17.91
2022-08-12T23:42:16.666Z,17.76
2022-08-12T23:44:47.274Z,17.88
2022-08-12T23:47:16.769Z,17.88
2022-08-12T23:49:57.542Z,17.84
2022-08-12T23:52:34.560Z,17.85
2022-08-12T23:55:23.857Z,17.55
2022-08-12T23:58:20.991Z,17.54
